Time;durP1;ratioP1;P1;durP2;ratioP2;P2;SDS_P1;SDS_P2;PMS_P1;PMS_P2;Temp;Humidity;BMP_temperature;BMP_pressure;BME280_temperature;BME280_humidity;BME280_pressure;Samples;Min_cycle;Max_cycle;Signal;HPM_P1;HPM_P2
2021/01/08 00:00:25;;;;;;;7.87;6.20;;;1.30;99.90;;;;;;4863169;28;20405;-77
2021/01/08 00:02:54;;;;;;;7.15;5.95;;;1.30;99.90;;;;;;4859815;29;20419;-77
2021/01/08 00:05:20;;;;;;;7.45;6.05;;;1.30;99.90;;;;;;4846346;29;20431;-76
2021/01/08 00:07:45;;;;;;;8.23;6.27;;;1.30;99.90;;;;;;4836852;29;20544;-75
2021/01/08 00:10:13;;;;;;;8.57;6.43;;;1.30;99.90;;;;;;4867810;28;20411;-76
2021/01/08 00:12:40;;;;;;;8.23;6.15;;;1.30;99.90;;;;;;4860242;29;20406;-77
2021/01/08 00:15:06;;;;;;;8.38;6.30;;;1.30;99.90;;;;;;4862706;28;20429;-75
2021/01/08 00:17:32;;;;;;;7.55;5.80;;;1.30;99.90;;;;;;4879869;28;20411;-80
2021/01/08 00:19:58;;;;;;;8.13;5.80;;;1.30;99.90;;;;;;4861289;29;20956;-77
2021/01/08 00:22:24;;;;;;;5.88;5.28;;;1.30;99.90;;;;;;4862561;29;20409;-77
2021/01/08 00:24:50;;;;;;;7.90;5.78;;;1.30;99.90;;;;;;4863067;29;20899;-77
2021/01/08 00:27:16;;;;;;;8.27;6.35;;;1.30;99.90;;;;;;4846400;29;20488;-79
2021/01/08 00:29:42;;;;;;;8.68;6.07;;;1.30;99.90;;;;;;4844637;29;20405;-80
2021/01/08 00:32:11;;;;;;;9.10;6.50;;;1.30;99.90;;;;;;4845291;29;20458;-78
2021/01/08 00:34:37;;;;;;;7.95;5.68;;;1.30;99.90;;;;;;4871770;29;20452;-79
2021/01/08 00:37:03;;;;;;;8.17;5.67;;;1.30;99.90;;;;;;4878652;28;20829;-79
2021/01/08 00:39:29;;;;;;;7.63;6.30;;;1.30;99.90;;;;;;4830613;29;20413;-78
2021/01/08 00:41:55;;;;;;;7.88;6.18;;;1.30;99.90;;;;;;4862469;28;20414;-80
2021/01/08 00:44:21;;;;;;;8.47;7.30;;;1.30;99.90;;;;;;4881977;28;20427;-78
2021/01/08 00:46:48;;;;;;;8.30;6.55;;;1.40;99.90;;;;;;4852152;29;20396;-76
2021/01/08 00:49:14;;;;;;;8.25;6.35;;;1.30;99.90;;;;;;4852922;29;20768;-78
2021/01/08 00:51:40;;;;;;;12.10;7.13;;;1.20;99.90;;;;;;4860174;29;20464;-77
2021/01/08 00:54:06;;;;;;;7.82;6.05;;;1.30;99.90;;;;;;4860636;29;20401;-75
2021/01/08 00:56:33;;;;;;;8.18;6.40;;;1.20;99.90;;;;;;4859945;29;20824;-80
2021/01/08 00:59:12;;;;;;;8.32;6.10;;;1.30;99.90;;;;;;4892995;28;20454;-76
2021/01/08 01:01:38;;;;;;;10.60;6.50;;;1.30;99.90;;;;;;4880003;29;20543;-77
2021/01/08 01:04:04;;;;;;;9.27;6.03;;;1.20;99.90;;;;;;4850222;29;20541;-76
2021/01/08 01:06:33;;;;;;;8.85;6.30;;;1.30;99.90;;;;;;4867644;29;20405;-83
2021/01/08 01:09:02;;;;;;;7.57;5.55;;;1.20;99.90;;;;;;4831392;29;20412;-81
2021/01/08 01:11:28;;;;;;;7.87;6.13;;;1.30;99.90;;;;;;4883157;28;20477;-79
2021/01/08 01:13:55;;;;;;;8.80;7.00;;;1.50;99.90;;;;;;4841732;29;20489;-79
2021/01/08 01:16:22;;;;;;;10.00;6.07;;;1.30;99.90;;;;;;4830932;29;20408;-78
2021/01/08 01:18:49;;;;;;;9.23;6.83;;;1.30;99.90;;;;;;4847084;29;20441;-83
2021/01/08 01:21:15;;;;;;;8.82;5.95;;;1.30;99.90;;;;;;4831885;29;20417;-75
2021/01/08 01:23:44;;;;;;;6.85;6.03;;;1.30;99.90;;;;;;4852768;29;20400;-82
2021/01/08 01:26:10;;;;;;;10.23;7.07;;;1.30;99.90;;;;;;4855727;29;20456;-77
2021/01/08 01:28:36;;;;;;;8.05;6.20;;;1.20;99.90;;;;;;4854446;29;20408;-82
2021/01/08 01:31:02;;;;;;;10.23;6.80;;;1.20;99.90;;;;;;4826781;29;20476;-77
2021/01/08 01:33:28;;;;;;;8.50;6.73;;;1.30;99.90;;;;;;4850336;29;21040;-78
2021/01/08 01:35:54;;;;;;;10.60;7.30;;;1.20;99.90;;;;;;4839852;29;20466;-77
2021/01/08 01:38:20;;;;;;;8.88;6.38;;;1.30;99.90;;;;;;4843485;29;20411;-77
2021/01/08 01:40:46;;;;;;;10.23;6.30;;;1.20;99.90;;;;;;4838239;28;20403;-78
2021/01/08 01:43:15;;;;;;;8.25;6.88;;;1.30;99.90;;;;;;4864865;29;20500;-76
2021/01/08 01:45:42;;;;;;;11.00;7.63;;;1.30;99.90;;;;;;4858577;29;20417;-79
2021/01/08 01:48:09;;;;;;;8.80;6.72;;;1.30;99.90;;;;;;4851654;29;20687;-76
2021/01/08 01:50:35;;;;;;;7.85;6.43;;;1.30;99.90;;;;;;4838882;29;20404;-76
2021/01/08 01:53:01;;;;;;;7.88;6.55;;;1.30;99.90;;;;;;4856109;29;20411;-75
2021/01/08 01:55:26;;;;;;;10.48;6.63;;;1.20;99.90;;;;;;4837219;29;20448;-79
2021/01/08 01:57:52;;;;;;;9.10;6.83;;;1.20;99.90;;;;;;4828280;29;20501;-77
2021/01/08 02:00:21;;;;;;;8.53;6.13;;;1.20;99.90;;;;;;4831905;29;20417;-77
2021/01/08 02:02:50;;;;;;;8.07;6.97;;;1.30;99.90;;;;;;4859173;29;20468;-76
2021/01/08 02:05:16;;;;;;;9.70;6.75;;;1.30;99.90;;;;;;4887061;28;20424;-76
2021/01/08 02:07:53;;;;;;;9.07;6.80;;;1.40;99.90;;;;;;4868987;29;20397;-78
2021/01/08 02:10:19;;;;;;;11.13;7.50;;;1.30;99.90;;;;;;4856854;28;20427;-75
2021/01/08 02:12:44;;;;;;;8.82;6.80;;;1.30;99.90;;;;;;4846686;29;20409;-74
2021/01/08 02:15:10;;;;;;;8.63;6.77;;;1.20;99.90;;;;;;4857752;29;20846;-81
2021/01/08 02:17:36;;;;;;;9.73;6.65;;;1.20;99.90;;;;;;4863554;29;20417;-75
2021/01/08 02:20:04;;;;;;;10.60;7.22;;;1.20;99.90;;;;;;4880208;28;20408;-77
2021/01/08 02:23:04;;;;;;;9.52;7.30;;;1.20;99.90;;;;;;4846843;29;20422;-80
2021/01/08 02:25:33;;;;;;;9.90;7.20;;;1.20;99.90;;;;;;4903435;28;20441;-79
2021/01/08 02:28:04;;;;;;;10.43;6.73;;;1.20;99.90;;;;;;4838264;29;20426;-79
2021/01/08 02:30:34;;;;;;;8.85;6.75;;;1.20;99.90;;;;;;4862438;28;20824;-79
2021/01/08 02:33:00;;;;;;;10.40;7.07;;;1.20;99.90;;;;;;4909293;28;20410;-78
2021/01/08 02:35:27;;;;;;;7.53;6.38;;;1.20;99.90;;;;;;4933546;28;20406;-78
2021/01/08 02:37:53;;;;;;;10.63;7.28;;;1.20;99.90;;;;;;4826902;29;20420;-75
2021/01/08 02:40:21;;;;;;;8.80;6.85;;;1.20;99.90;;;;;;4898767;28;20440;-75
2021/01/08 02:42:47;;;;;;;9.30;6.82;;;1.20;99.90;;;;;;4838538;28;20473;-77
2021/01/08 02:45:14;;;;;;;9.48;7.20;;;1.20;99.90;;;;;;4845751;28;20421;-76
2021/01/08 02:47:39;;;;;;;8.63;6.20;;;1.20;99.90;;;;;;4872301;29;20432;-76
2021/01/08 02:50:06;;;;;;;9.47;6.97;;;1.20;99.90;;;;;;4875811;28;20470;-75
2021/01/08 02:52:31;;;;;;;7.47;6.65;;;1.20;99.90;;;;;;4818732;29;20500;-76
2021/01/08 02:54:57;;;;;;;10.80;6.93;;;1.20;99.90;;;;;;4865457;29;20420;-76
2021/01/08 02:57:25;;;;;;;8.27;6.78;;;1.20;99.90;;;;;;4842097;29;20417;-76
2021/01/08 02:59:50;;;;;;;7.90;6.83;;;1.20;99.90;;;;;;4858026;29;20413;-75
2021/01/08 03:02:16;;;;;;;11.23;7.37;;;1.20;99.90;;;;;;4831875;29;20552;-75
2021/01/08 03:04:42;;;;;;;10.38;6.80;;;1.20;99.90;;;;;;4876998;28;20468;-75
2021/01/08 03:07:08;;;;;;;7.00;5.97;;;1.20;99.90;;;;;;4837814;29;20444;-75
2021/01/08 03:09:33;;;;;;;8.13;6.63;;;1.20;99.90;;;;;;4851993;28;20418;-75
2021/01/08 03:11:59;;;;;;;9.68;6.90;;;1.20;99.90;;;;;;4863387;29;20414;-75
2021/01/08 03:14:25;;;;;;;9.10;6.97;;;1.20;99.90;;;;;;4836923;29;20429;-76
2021/01/08 03:16:50;;;;;;;10.30;7.60;;;1.20;99.90;;;;;;4833477;29;20399;-76
2021/01/08 03:19:16;;;;;;;9.27;7.13;;;1.20;99.90;;;;;;4868399;28;20480;-75
2021/01/08 03:21:43;;;;;;;9.93;6.70;;;1.20;99.90;;;;;;4843155;29;20442;-75
2021/01/08 03:24:10;;;;;;;9.05;6.47;;;1.20;99.90;;;;;;4861678;29;20444;-76
2021/01/08 03:26:36;;;;;;;9.07;6.38;;;1.20;99.90;;;;;;4859034;29;20400;-77
2021/01/08 03:29:01;;;;;;;8.27;7.40;;;1.20;99.90;;;;;;4874160;28;20423;-76
2021/01/08 03:31:27;;;;;;;8.32;6.78;;;1.20;99.90;;;;;;4871859;29;20436;-76
2021/01/08 03:33:53;;;;;;;9.73;6.65;;;1.20;99.90;;;;;;4841381;29;20913;-76
2021/01/08 03:36:19;;;;;;;8.77;6.90;;;1.20;99.90;;;;;;4854505;29;20412;-77
2021/01/08 03:38:45;;;;;;;8.10;6.67;;;1.20;99.90;;;;;;4869018;29;20408;-76
2021/01/08 03:41:10;;;;;;;7.35;6.05;;;1.20;99.90;;;;;;4860702;29;20404;-75
2021/01/08 03:43:36;;;;;;;11.07;7.45;;;1.20;99.90;;;;;;4845963;29;20408;-75
2021/01/08 03:46:02;;;;;;;9.97;7.13;;;1.20;99.90;;;;;;4847250;29;20408;-76
2021/01/08 03:48:28;;;;;;;8.68;6.63;;;1.20;99.90;;;;;;4851666;29;20424;-76
2021/01/08 03:50:53;;;;;;;7.43;6.25;;;1.20;99.90;;;;;;4858468;29;20428;-76
2021/01/08 03:53:19;;;;;;;8.60;7.00;;;1.10;99.90;;;;;;4887087;28;20405;-76
2021/01/08 03:55:45;;;;;;;9.30;6.27;;;1.20;99.90;;;;;;4829313;29;20467;-76
2021/01/08 03:58:10;;;;;;;8.68;6.55;;;1.20;99.90;;;;;;4820040;29;20427;-75
2021/01/08 04:00:36;;;;;;;8.83;6.50;;;1.20;99.90;;;;;;4835817;29;20418;-76
2021/01/08 04:03:02;;;;;;;10.27;7.60;;;1.20;99.90;;;;;;4852649;29;20432;-75
2021/01/08 04:05:27;;;;;;;9.52;7.00;;;1.20;99.90;;;;;;4846939;29;20421;-75
2021/01/08 04:07:53;;;;;;;8.63;6.97;;;1.20;99.90;;;;;;4856632;29;20434;-76
2021/01/08 04:10:19;;;;;;;10.20;7.67;;;1.20;99.90;;;;;;4837364;29;20484;-76
2021/01/08 04:12:44;;;;;;;8.65;7.18;;;1.20;99.90;;;;;;4861022;28;20410;-76
2021/01/08 04:15:10;;;;;;;10.38;7.18;;;1.20;99.90;;;;;;4860523;29;20909;-76
2021/01/08 04:17:36;;;;;;;8.50;6.70;;;1.20;99.90;;;;;;4838895;29;20401;-76
2021/01/08 04:20:02;;;;;;;8.98;7.05;;;1.20;99.90;;;;;;4881005;28;20468;-75
2021/01/08 04:22:28;;;;;;;8.73;6.97;;;1.20;99.90;;;;;;4872670;29;21010;-77
2021/01/08 04:24:53;;;;;;;8.90;7.18;;;1.20;99.90;;;;;;4847192;28;20454;-77
2021/01/08 04:27:19;;;;;;;9.23;6.87;;;1.20;99.90;;;;;;4875993;29;20409;-74
2021/01/08 04:29:45;;;;;;;10.57;7.93;;;1.20;99.90;;;;;;4857167;29;20405;-77
2021/01/08 04:32:14;;;;;;;8.10;6.40;;;1.20;99.90;;;;;;4846655;29;20407;-75
2021/01/08 04:34:39;;;;;;;10.52;7.22;;;1.20;99.90;;;;;;4870413;28;20407;-74
2021/01/08 04:37:05;;;;;;;8.60;6.50;;;1.20;99.90;;;;;;4871050;29;20420;-73
2021/01/08 04:39:31;;;;;;;10.10;7.40;;;1.20;99.90;;;;;;4872563;28;20449;-76
2021/01/08 04:41:56;;;;;;;9.32;7.53;;;1.20;99.90;;;;;;4860018;29;20428;-74
2021/01/08 04:44:22;;;;;;;9.47;7.33;;;1.20;99.90;;;;;;4851632;29;20493;-72
2021/01/08 04:46:48;;;;;;;9.63;6.97;;;1.20;99.90;;;;;;4879799;29;21023;-73
2021/01/08 04:49:14;;;;;;;10.03;6.93;;;1.10;99.90;;;;;;4861418;29;20412;-73
2021/01/08 04:51:43;;;;;;;9.23;6.77;;;1.10;99.90;;;;;;4867201;29;20423;-72
2021/01/08 04:54:08;;;;;;;8.10;6.63;;;1.20;99.90;;;;;;4849469;28;20411;-73
2021/01/08 04:56:44;;;;;;;7.60;6.65;;;1.20;99.90;;;;;;4871708;28;20432;-73
2021/01/08 04:59:10;;;;;;;8.82;7.20;;;1.20;99.90;;;;;;4851951;29;20981;-75
2021/01/08 05:01:36;;;;;;;8.57;6.70;;;1.20;99.90;;;;;;4852529;29;20454;-73
2021/01/08 05:04:02;;;;;;;9.10;6.90;;;1.20;99.90;;;;;;4853833;29;20411;-75
2021/01/08 05:06:28;;;;;;;10.60;6.75;;;1.20;99.90;;;;;;4857798;29;20429;-75
2021/01/08 05:08:54;;;;;;;7.85;6.65;;;1.10;99.90;;;;;;4871069;28;20412;-76
2021/01/08 05:11:40;;;;;;;9.40;7.00;;;1.10;99.90;;;;;;4862930;29;20417;-74
2021/01/08 05:14:08;;;;;;;10.05;6.90;;;1.10;99.90;;;;;;4878042;28;20418;-75
2021/01/08 05:16:33;;;;;;;9.57;7.15;;;1.00;99.90;;;;;;4841931;28;20430;-75
2021/01/08 05:19:00;;;;;;;7.75;6.45;;;1.00;99.90;;;;;;4869301;28;20415;-74
2021/01/08 05:21:28;;;;;;;10.15;6.25;;;1.00;99.90;;;;;;4851900;29;20421;-76
2021/01/08 05:23:54;;;;;;;9.93;6.97;;;1.10;99.90;;;;;;4872045;29;20403;-73
2021/01/08 05:26:21;;;;;;;10.10;7.50;;;1.00;99.90;;;;;;4882733;29;20413;-75
2021/01/08 05:29:06;;;;;;;8.23;6.47;;;1.00;99.90;;;;;;4855337;29;20422;-76
2021/01/08 05:31:33;;;;;;;7.70;6.40;;;1.00;99.90;;;;;;4881531;28;20423;-76
2021/01/08 05:33:59;;;;;;;8.70;6.22;;;1.00;99.90;;;;;;4865236;29;20419;-75
2021/01/08 05:36:25;;;;;;;9.15;6.82;;;1.00;99.90;;;;;;4846552;29;20468;-72
2021/01/08 05:38:57;;;;;;;8.77;6.70;;;1.00;99.90;;;;;;4852549;29;20438;-74
2021/01/08 05:41:23;;;;;;;10.13;7.30;;;1.00;99.90;;;;;;4848438;29;20410;-72
2021/01/08 05:43:48;;;;;;;9.30;6.80;;;1.10;99.90;;;;;;4844756;29;20414;-72
2021/01/08 05:46:16;;;;;;;7.85;6.57;;;1.00;99.90;;;;;;4857513;29;20408;-72
2021/01/08 05:48:44;;;;;;;9.80;7.10;;;0.90;99.90;;;;;;4837411;29;20444;-73
2021/01/08 05:51:13;;;;;;;6.95;5.57;;;0.90;99.90;;;;;;4876435;28;20847;-72
2021/01/08 05:53:39;;;;;;;7.72;6.13;;;0.90;99.90;;;;;;4891840;28;20495;-73
2021/01/08 05:56:05;;;;;;;8.30;6.53;;;0.90;99.90;;;;;;4871306;28;20930;-72
2021/01/08 05:58:30;;;;;;;7.38;5.70;;;0.90;99.90;;;;;;4867759;28;20428;-72
2021/01/08 06:00:57;;;;;;;8.95;6.75;;;0.90;99.90;;;;;;4866454;29;20416;-71
2021/01/08 06:03:24;;;;;;;8.02;6.10;;;0.90;99.90;;;;;;4865191;29;20782;-74
2021/01/08 06:05:57;;;;;;;9.13;7.40;;;0.90;99.90;;;;;;4915333;28;20474;-73
2021/01/08 06:08:28;;;;;;;9.88;7.25;;;0.90;99.90;;;;;;4854941;29;21913;-72
2021/01/08 06:10:56;;;;;;;8.05;6.60;;;0.90;99.90;;;;;;4840042;29;20415;-75
2021/01/08 06:13:25;;;;;;;7.13;6.03;;;0.80;99.90;;;;;;4848074;29;20563;-75
2021/01/08 06:15:51;;;;;;;9.75;6.80;;;0.80;99.90;;;;;;4871339;28;20492;-75
2021/01/08 06:18:19;;;;;;;10.57;8.02;;;0.70;99.90;;;;;;4867710;29;20828;-75
2021/01/08 06:20:47;;;;;;;10.02;6.80;;;0.80;99.90;;;;;;4856802;29;20413;-75
2021/01/08 06:23:51;;;;;;;10.00;6.93;;;0.80;99.90;;;;;;4840794;29;20469;-76
2021/01/08 06:26:18;;;;;;;7.00;5.93;;;0.70;99.90;;;;;;4836020;29;20418;-75
2021/01/08 06:28:45;;;;;;;8.95;5.90;;;0.70;99.90;;;;;;4896771;29;20463;-75
2021/01/08 06:31:22;;;;;;;8.85;6.63;;;0.70;99.90;;;;;;4858480;28;20411;-75
2021/01/08 06:33:59;;;;;;;7.00;6.05;;;0.70;99.90;;;;;;4891461;28;21080;-75
2021/01/08 06:36:29;;;;;;;9.43;6.20;;;0.70;99.90;;;;;;4850868;29;20509;-76
2021/01/08 06:38:55;;;;;;;8.52;5.90;;;0.70;99.90;;;;;;4821426;29;20416;-75
2021/01/08 06:41:21;;;;;;;10.77;8.02;;;0.70;99.90;;;;;;4822208;29;20420;-75
2021/01/08 06:43:49;;;;;;;9.70;7.07;;;0.60;99.90;;;;;;4849154;28;20479;-75
2021/01/08 06:46:36;;;;;;;10.35;6.40;;;0.60;99.90;;;;;;4900985;28;20778;-75
2021/01/08 06:49:09;;;;;;;10.40;6.85;;;0.70;99.90;;;;;;4954028;28;20418;-76
2021/01/08 06:51:35;;;;;;;8.90;7.03;;;0.60;99.90;;;;;;4860884;29;20425;-75
2021/01/08 06:54:05;;;;;;;7.70;6.32;;;0.60;99.90;;;;;;4862999;29;20471;-75
2021/01/08 06:56:38;;;;;;;7.25;5.97;;;0.60;99.90;;;;;;4884671;28;20487;-76
2021/01/08 06:59:10;;;;;;;9.18;6.20;;;0.60;99.90;;;;;;4845314;29;20443;-76
2021/01/08 07:01:40;;;;;;;7.85;6.38;;;0.50;99.90;;;;;;4848171;29;20412;-76
2021/01/08 07:04:05;;;;;;;9.00;6.43;;;0.50;99.90;;;;;;4865811;29;20424;-76
2021/01/08 07:06:35;;;;;;;8.75;6.20;;;0.50;99.90;;;;;;4845393;29;20680;-77
2021/01/08 07:09:02;;;;;;;9.98;6.75;;;0.50;99.90;;;;;;4845042;29;20419;-75
2021/01/08 07:11:28;;;;;;;7.65;6.20;;;0.50;99.90;;;;;;4855102;29;20402;-75
2021/01/08 07:14:08;;;;;;;8.43;6.50;;;0.50;99.90;;;;;;4872267;29;20395;-75
2021/01/08 07:16:39;;;;;;;8.23;6.93;;;0.50;99.90;;;;;;4840793;29;20421;-75
2021/01/08 07:19:05;;;;;;;10.35;8.18;;;0.50;99.90;;;;;;4854191;29;20908;-75
2021/01/08 07:21:31;;;;;;;11.55;7.72;;;0.50;99.90;;;;;;4837114;29;20975;-74
2021/01/08 07:23:57;;;;;;;8.05;5.72;;;0.50;99.90;;;;;;4865736;29;20768;-75
2021/01/08 07:26:26;;;;;;;7.53;6.10;;;0.50;99.90;;;;;;4846931;29;20408;-75
2021/01/08 07:28:53;;;;;;;7.35;5.80;;;0.60;99.90;;;;;;4853003;29;20415;-74
2021/01/08 07:31:28;;;;;;;7.78;5.78;;;0.70;99.90;;;;;;4869026;28;21029;-75
2021/01/08 07:33:56;;;;;;;9.18;6.22;;;0.60;99.90;;;;;;4898042;28;20435;-75
2021/01/08 07:36:26;;;;;;;7.18;6.05;;;0.60;99.90;;;;;;4857452;29;20420;-77
2021/01/08 07:38:53;;;;;;;8.43;6.35;;;0.60;99.90;;;;;;4855812;29;20498;-76
2021/01/08 07:41:30;;;;;;;9.65;6.68;;;0.70;99.90;;;;;;4863695;28;20415;-78
2021/01/08 07:43:56;;;;;;;8.90;6.37;;;0.70;99.90;;;;;;4884898;28;20411;-76
2021/01/08 07:46:28;;;;;;;7.87;6.53;;;0.70;99.90;;;;;;4845026;29;20416;-76
2021/01/08 07:48:56;;;;;;;7.43;6.28;;;0.70;99.90;;;;;;4842050;29;20931;-77
2021/01/08 07:51:22;;;;;;;8.10;6.10;;;0.70;99.90;;;;;;4857146;29;21018;-77
2021/01/08 07:53:50;;;;;;;7.07;5.97;;;0.70;99.90;;;;;;4892180;28;20453;-76
2021/01/08 07:56:25;;;;;;;8.02;6.50;;;0.80;99.90;;;;;;4840500;29;20424;-76
2021/01/08 07:58:58;;;;;;;9.00;6.75;;;0.80;99.90;;;;;;4852289;29;20437;-76
2021/01/08 08:01:24;;;;;;;10.20;6.95;;;0.80;99.90;;;;;;4855986;29;20444;-76
2021/01/08 08:04:04;;;;;;;8.85;6.70;;;0.80;99.90;;;;;;4843975;29;20416;-77
2021/01/08 08:06:31;;;;;;;10.30;6.22;;;0.80;99.90;;;;;;4876571;29;20512;-76
2021/01/08 08:08:58;;;;;;;9.10;7.53;;;0.90;99.90;;;;;;4825431;29;20397;-76
2021/01/08 08:11:27;;;;;;;7.55;6.35;;;0.80;99.90;;;;;;4898229;28;20471;-77
2021/01/08 08:13:56;;;;;;;10.00;6.68;;;0.90;99.90;;;;;;4885296;28;20431;-77
2021/01/08 08:16:35;;;;;;;8.63;6.65;;;0.90;99.90;;;;;;4874047;29;20404;-79
2021/01/08 08:19:01;;;;;;;8.68;7.25;;;1.00;99.90;;;;;;4856377;29;20766;-78
2021/01/08 08:21:26;;;;;;;11.20;7.63;;;1.00;99.90;;;;;;4860747;28;20420;-75
2021/01/08 08:23:59;;;;;;;9.53;7.40;;;1.00;99.90;;;;;;4855580;28;20789;-75
2021/01/08 08:26:25;;;;;;;8.98;6.63;;;1.00;99.90;;;;;;4893123;28;20423;-76
2021/01/08 08:29:10;;;;;;;9.75;6.57;;;1.10;99.90;;;;;;4890708;28;20424;-77
2021/01/08 08:31:50;;;;;;;9.40;6.88;;;1.10;99.90;;;;;;4857381;28;20913;-77
2021/01/08 08:34:25;;;;;;;9.15;7.35;;;1.10;99.90;;;;;;4928740;28;20436;-76
2021/01/08 08:36:51;;;;;;;8.90;6.75;;;1.10;99.90;;;;;;4857834;29;20416;-75
2021/01/08 08:39:17;;;;;;;9.73;7.35;;;1.10;99.90;;;;;;4842345;28;20403;-77
2021/01/08 08:41:48;;;;;;;11.63;7.55;;;1.10;99.90;;;;;;4844688;29;20489;-76
2021/01/08 08:44:18;;;;;;;10.85;7.95;;;1.20;99.90;;;;;;4852510;29;20515;-75
2021/01/08 08:46:51;;;;;;;10.20;6.60;;;1.20;99.90;;;;;;4855507;29;20413;-75
2021/01/08 08:49:18;;;;;;;15.85;10.80;;;1.20;99.90;;;;;;4867405;28;20407;-72
2021/01/08 08:51:53;;;;;;;9.80;7.75;;;1.30;99.90;;;;;;4861728;29;20402;-75
2021/01/08 08:54:19;;;;;;;9.20;7.18;;;1.30;99.90;;;;;;4847056;29;20425;-75
2021/01/08 08:56:58;;;;;;;10.65;7.07;;;1.40;99.90;;;;;;4842191;29;20996;-73
2021/01/08 08:59:45;;;;;;;9.23;7.20;;;1.30;99.90;;;;;;4858873;29;20455;-73
2021/01/08 09:02:20;;;;;;;10.27;7.70;;;1.30;99.90;;;;;;4860344;28;20417;-73
2021/01/08 09:05:04;;;;;;;9.18;7.80;;;1.40;99.90;;;;;;4873544;29;20509;-73
2021/01/08 09:07:55;;;;;;;8.02;7.15;;;1.40;99.90;;;;;;4848205;29;20421;-73
2021/01/08 09:10:28;;;;;;;7.97;7.03;;;1.50;99.90;;;;;;4884450;28;20449;-73
2021/01/08 09:13:03;;;;;;;8.30;7.10;;;1.50;99.90;;;;;;4846667;29;20494;-75
2021/01/08 09:15:34;;;;;;;10.45;7.38;;;1.60;99.90;;;;;;4858464;28;20506;-75
2021/01/08 09:18:07;;;;;;;11.15;7.85;;;1.60;99.90;;;;;;4827071;29;20415;-74
2021/01/08 09:20:33;;;;;;;10.65;7.47;;;1.60;99.90;;;;;;4842177;29;20422;-74
2021/01/08 09:23:00;;;;;;;10.25;8.20;;;1.60;99.90;;;;;;4836359;29;20560;-73
2021/01/08 09:25:25;;;;;;;12.73;9.93;;;1.70;99.90;;;;;;4839119;29;20419;-75
2021/01/08 09:27:51;;;;;;;12.30;9.05;;;1.70;99.90;;;;;;4839220;28;20415;-76
2021/01/08 09:30:17;;;;;;;12.05;8.43;;;1.70;99.90;;;;;;4849683;29;20408;-75
2021/01/08 09:32:43;;;;;;;10.57;7.68;;;1.70;99.90;;;;;;4833636;29;20454;-75
2021/01/08 09:35:10;;;;;;;10.60;8.43;;;1.70;99.90;;;;;;4830057;29;20421;-75
2021/01/08 09:37:47;;;;;;;11.48;8.57;;;1.80;99.90;;;;;;4852282;29;20641;-77
2021/01/08 09:40:14;;;;;;;9.90;8.45;;;1.90;99.90;;;;;;4865256;28;20928;-75
2021/01/08 09:42:40;;;;;;;12.32;8.55;;;1.80;99.90;;;;;;4854027;29;20427;-74
2021/01/08 09:45:25;;;;;;;10.85;8.38;;;1.90;99.90;;;;;;4863145;29;20421;-74
2021/01/08 09:47:51;;;;;;;13.67;9.17;;;1.90;99.90;;;;;;4851407;29;20405;-75
2021/01/08 09:50:30;;;;;;;12.23;9.33;;;1.90;99.90;;;;;;4839222;29;20438;-74
2021/01/08 09:53:00;;;;;;;10.55;8.73;;;1.90;99.90;;;;;;4856818;29;20419;-75
2021/01/08 09:55:30;;;;;;;11.82;7.75;;;1.90;99.90;;;;;;4880357;28;20442;-75
2021/01/08 09:57:59;;;;;;;11.35;8.25;;;1.90;99.90;;;;;;4850646;29;20836;-75
2021/01/08 10:00:36;;;;;;;11.10;8.45;;;2.00;99.90;;;;;;4887112;29;20429;-76
2021/01/08 10:03:03;;;;;;;11.48;9.00;;;1.90;99.90;;;;;;4823881;29;20475;-76
2021/01/08 10:05:33;;;;;;;10.82;9.07;;;1.90;99.90;;;;;;4840241;29;20423;-75
2021/01/08 10:08:01;;;;;;;16.37;9.87;;;1.90;99.90;;;;;;4858374;29;20876;-75
2021/01/08 10:10:26;;;;;;;14.88;11.48;;;2.00;99.90;;;;;;4824901;29;20419;-75
2021/01/08 10:12:53;;;;;;;15.75;10.48;;;1.90;99.90;;;;;;4879132;28;20415;-75
2021/01/08 10:15:20;;;;;;;11.13;9.18;;;2.00;99.90;;;;;;4859857;28;20416;-75
2021/01/08 10:17:50;;;;;;;10.83;8.17;;;2.00;99.90;;;;;;4845437;29;20423;-75
2021/01/08 10:20:20;;;;;;;11.88;8.77;;;2.00;99.90;;;;;;4848081;29;20426;-75
2021/01/08 10:22:49;;;;;;;9.40;7.95;;;1.90;99.90;;;;;;4855443;29;20935;-75
2021/01/08 10:25:24;;;;;;;8.60;7.60;;;1.90;99.90;;;;;;4878837;29;20434;-75
2021/01/08 10:27:50;;;;;;;9.68;8.02;;;1.90;99.90;;;;;;4881503;28;20451;-74
2021/01/08 10:30:16;;;;;;;12.17;8.20;;;1.90;99.90;;;;;;4920897;28;21546;-76
2021/01/08 10:32:48;;;;;;;10.20;8.40;;;2.00;99.90;;;;;;4866452;28;20412;-77
2021/01/08 10:35:14;;;;;;;8.90;7.93;;;2.00;99.90;;;;;;4941514;28;20413;-73
2021/01/08 10:37:40;;;;;;;12.85;9.68;;;2.00;99.90;;;;;;4825430;29;20412;-77
2021/01/08 10:40:06;;;;;;;10.97;9.10;;;2.10;99.90;;;;;;4868505;28;20429;-75
2021/01/08 10:42:32;;;;;;;10.70;8.40;;;2.10;99.90;;;;;;4861360;29;20417;-77
2021/01/08 10:44:58;;;;;;;10.50;8.17;;;2.20;99.90;;;;;;4862585;29;20425;-77
2021/01/08 10:47:23;;;;;;;10.45;8.27;;;2.20;99.90;;;;;;4840533;29;20424;-78
2021/01/08 10:49:49;;;;;;;10.05;8.30;;;2.20;99.90;;;;;;4840169;29;20401;-81
2021/01/08 10:52:15;;;;;;;11.40;8.10;;;2.30;99.90;;;;;;4850538;28;20929;-77
2021/01/08 10:54:40;;;;;;;10.67;8.60;;;2.30;99.90;;;;;;4867457;28;20485;-77
2021/01/08 10:57:06;;;;;;;9.85;8.07;;;2.30;99.90;;;;;;4888594;28;20419;-76
2021/01/08 10:59:32;;;;;;;10.63;8.00;;;2.40;99.90;;;;;;4841195;29;20417;-79
2021/01/08 11:01:57;;;;;;;9.90;7.20;;;2.40;99.90;;;;;;4844335;29;20419;-76
2021/01/08 11:04:23;;;;;;;12.48;8.13;;;2.40;99.90;;;;;;4820968;29;20430;-74
2021/01/08 11:06:55;;;;;;;9.20;6.87;;;2.40;99.90;;;;;;4918584;28;20447;-75
2021/01/08 11:09:21;;;;;;;9.63;7.63;;;2.40;99.90;;;;;;4833635;29;20406;-76
2021/01/08 11:11:46;;;;;;;10.23;7.93;;;2.40;99.90;;;;;;4834943;29;20448;-77
2021/01/08 11:14:12;;;;;;;8.57;6.43;;;2.50;99.90;;;;;;4833998;29;20424;-78
2021/01/08 11:16:38;;;;;;;8.00;6.47;;;2.50;99.90;;;;;;4831353;29;20411;-76
2021/01/08 11:19:03;;;;;;;8.63;6.55;;;2.50;99.90;;;;;;4846954;29;20533;-77
2021/01/08 11:21:29;;;;;;;8.63;7.07;;;2.40;99.90;;;;;;4841020;29;20431;-78
2021/01/08 11:23:55;;;;;;;9.33;7.43;;;2.50;99.90;;;;;;4858011;28;21179;-76
2021/01/08 11:26:24;;;;;;;8.18;7.28;;;2.50;99.90;;;;;;4860970;29;20423;-76
2021/01/08 11:28:50;;;;;;;7.68;6.38;;;2.50;99.90;;;;;;4878803;28;20423;-76
2021/01/08 11:31:17;;;;;;;7.50;5.72;;;2.70;99.90;;;;;;4846331;29;20880;-75
2021/01/08 11:33:46;;;;;;;6.85;6.15;;;2.60;99.90;;;;;;4857137;29;20409;-75
2021/01/08 11:36:11;;;;;;;7.65;5.90;;;2.50;99.90;;;;;;4820967;29;20420;-75
2021/01/08 11:38:38;;;;;;;8.27;6.13;;;2.60;99.90;;;;;;4820160;29;20426;-75
2021/01/08 11:41:03;;;;;;;8.03;6.33;;;2.40;99.90;;;;;;4821255;29;20549;-75
2021/01/08 11:43:29;;;;;;;6.90;6.17;;;2.50;99.90;;;;;;4863479;28;20492;-75
2021/01/08 11:45:55;;;;;;;7.57;6.68;;;2.50;99.90;;;;;;4867989;29;20816;-75
2021/01/08 11:48:20;;;;;;;7.47;5.77;;;2.50;99.90;;;;;;4919573;28;20422;-76
2021/01/08 11:50:46;;;;;;;5.87;5.30;;;2.50;99.90;;;;;;4849920;28;20463;-76
2021/01/08 11:53:11;;;;;;;7.35;5.80;;;2.60;99.90;;;;;;4860823;29;20445;-76
2021/01/08 11:55:37;;;;;;;5.87;5.07;;;2.60;99.90;;;;;;4824008;29;20417;-76
2021/01/08 11:58:03;;;;;;;5.43;4.93;;;2.60;99.90;;;;;;4853165;29;20449;-76
2021/01/08 12:00:29;;;;;;;6.82;5.13;;;2.60;99.90;;;;;;4837583;29;20422;-76
2021/01/08 12:02:54;;;;;;;5.53;5.00;;;2.60;99.90;;;;;;4852687;29;20422;-76
2021/01/08 12:05:20;;;;;;;5.90;5.03;;;2.70;99.90;;;;;;4856084;29;20424;-76
2021/01/08 12:07:46;;;;;;;6.35;4.68;;;2.60;99.90;;;;;;4839742;29;20505;-76
2021/01/08 12:10:11;;;;;;;7.17;4.80;;;2.60;99.90;;;;;;4830543;29;20491;-75
2021/01/08 12:12:37;;;;;;;5.18;4.68;;;2.60;99.90;;;;;;4840711;29;20458;-76
2021/01/08 12:15:03;;;;;;;6.13;5.07;;;2.60;99.90;;;;;;4898445;29;20432;-76
2021/01/08 12:17:29;;;;;;;5.82;5.22;;;2.60;99.90;;;;;;4844896;29;20411;-76
2021/01/08 12:19:55;;;;;;;5.88;5.13;;;2.60;99.90;;;;;;4846047;29;20465;-76
2021/01/08 12:22:21;;;;;;;7.90;5.50;;;2.60;99.90;;;;;;4839938;29;20435;-77
2021/01/08 12:24:46;;;;;;;6.40;5.63;;;2.60;99.90;;;;;;4877991;28;20481;-76
2021/01/08 12:27:12;;;;;;;6.28;5.68;;;2.60;99.90;;;;;;4866872;29;20913;-76
2021/01/08 12:29:38;;;;;;;6.40;5.43;;;2.70;99.90;;;;;;4882020;28;20448;-76
2021/01/08 12:32:04;;;;;;;5.97;5.37;;;2.60;99.90;;;;;;4861725;29;20486;-75
2021/01/08 12:34:30;;;;;;;6.38;5.38;;;2.60;99.90;;;;;;4819309;29;20495;-76
2021/01/08 12:36:56;;;;;;;7.90;5.67;;;2.60;99.90;;;;;;4811901;29;20458;-76
2021/01/08 12:39:22;;;;;;;8.30;6.13;;;2.60;99.90;;;;;;4825533;29;20940;-76
2021/01/08 12:41:47;;;;;;;7.50;6.13;;;2.60;99.90;;;;;;4862532;29;20486;-76
2021/01/08 12:44:13;;;;;;;9.20;7.47;;;2.60;99.90;;;;;;4856277;29;20793;-76
2021/01/08 12:46:39;;;;;;;10.73;7.75;;;2.60;99.90;;;;;;4817299;29;20491;-76
2021/01/08 12:49:08;;;;;;;8.57;6.77;;;2.50;99.90;;;;;;4822790;29;20411;-76
2021/01/08 12:51:34;;;;;;;11.27;7.80;;;2.70;99.90;;;;;;4867009;29;20409;-76
2021/01/08 12:54:00;;;;;;;7.82;6.82;;;2.50;99.90;;;;;;4878626;28;20409;-76
2021/01/08 12:56:34;;;;;;;9.75;7.55;;;2.50;99.90;;;;;;4841850;29;20419;-76